Weather at Skylark Field

Public forecast

Using degrees Fahrenheit for public forecast. Weather courtesy of forecast.io.

Current aviation weather report (METAR) for Skylark Field

2022/12/04 11:56 (retrieved 22 minutes ago)

KILE 041156Z AUTO 36006KT 10SM OVC027 09/06 A3034 RMK AO2 RAB09E31 SLP272 P0000 60000 T00940056 10111 20094 50001

Closest aviation forecast (TAF) to Skylark Field

Closest forecast is Killeen-Fort Hood Regional Airport / Robert Gray Army Air Field, 7.4 nm (13.7 km) W.

2022/12/04 08:20 (retrieved 4 hours ago)

TAF KGRK 040800Z 0408/0514 VRB06KT 9999 OVC030 QNH3011INS BECMG 0501/0502 VRB06KT 9999 BKN010 OVC020 QNH3008INS TX16/0418Z TN11/0408Z